LEZL/SVQ METAR and TAF weather

Enter ICAO airport designator
Station Type Date Time Source
LEZL METAR 2019/06/27 10:00 UTC NOAA

LEZL 271000Z 26005KT 200V330 CAVOK 27/17 Q1017 NOSIG


Station Type Date Time Source
LEZL Decoded METAR 2019/06/27 10:00 UTC NOAA

Sevilla / San Pablo, Spain (LEZL) 37-25N 005-54W 31M
Jun 27, 2019 - 06:00 AM EDT / 2019.06.27 1000 UTC
Wind: from the W (260 degrees) at 6 MPH (5 KT) (direction variable):0
Visibility: greater than 7 mile(s):0
Temperature: 80 F (27 C)
Dew Point: 62 F (17 C)
Relative Humidity: 54%
Pressure (altimeter): 30.03 in. Hg (1017 hPa)
ob: LEZL 271000Z 26005KT 200V330 CAVOK 27/17 Q1017 NOSIG
cycle: 10

Station Type Date Time Source
LEZL TAF 2019/06/27 09:27 UTC NOAA

TAF TAF LEZL 270800Z 2709/2809 24008KT CAVOK TX35/2715Z TN20/2805Z

Example: see airport list